sensor_id;sensor_type;location;lat;lon;timestamp;pressure;altitude;pressure_sealevel;temperature;humidity
18858;BME280;9558;50.178;8.370;2022-12-07T00:01:44;98299.06;;;3.06;100.00
18858;BME280;9558;50.178;8.370;2022-12-07T00:04:11;98298.13;;;3.07;100.00
18858;BME280;9558;50.178;8.370;2022-12-07T00:06:40;98288.59;;;3.09;100.00
18858;BME280;9558;50.178;8.370;2022-12-07T00:09:10;98296.25;;;3.09;100.00
18858;BME280;9558;50.178;8.370;2022-12-07T00:11:38;98295.31;;;3.10;100.00
18858;BME280;9558;50.178;8.370;2022-12-07T00:14:05;98289.72;;;3.16;100.00
18858;BME280;9558;50.178;8.370;2022-12-07T00:16:33;98282.97;;;3.15;100.00
18858;BME280;9558;50.178;8.370;2022-12-07T00:19:00;98282.28;;;3.13;100.00
18858;BME280;9558;50.178;8.370;2022-12-07T00:21:28;98271.13;;;3.14;100.00
18858;BME280;9558;50.178;8.370;2022-12-07T00:23:56;98272.88;;;3.14;100.00
18858;BME280;9558;50.178;8.370;2022-12-07T00:26:23;98272.41;;;3.08;100.00
18858;BME280;9558;50.178;8.370;2022-12-07T00:28:53;98279.53;;;3.05;100.00
18858;BME280;9558;50.178;8.370;2022-12-07T00:31:23;98282.22;;;3.03;100.00
18858;BME280;9558;50.178;8.370;2022-12-07T00:33:50;98264.34;;;3.03;100.00
18858;BME280;9558;50.178;8.370;2022-12-07T00:36:18;98262.81;;;3.01;100.00
18858;BME280;9558;50.178;8.370;2022-12-07T00:38:45;98261.19;;;3.00;100.00
18858;BME280;9558;50.178;8.370;2022-12-07T00:41:14;98268.19;;;2.98;100.00
18858;BME280;9558;50.178;8.370;2022-12-07T00:43:42;98266.56;;;2.97;100.00
18858;BME280;9558;50.178;8.370;2022-12-07T00:46:11;98258.75;;;2.98;100.00
18858;BME280;9558;50.178;8.370;2022-12-07T00:48:38;98256.34;;;2.97;100.00
18858;BME280;9558;50.178;8.370;2022-12-07T00:51:05;98260.66;;;2.96;100.00
18858;BME280;9558;50.178;8.370;2022-12-07T00:53:34;98257.25;;;2.96;100.00
18858;BME280;9558;50.178;8.370;2022-12-07T00:56:05;98259.81;;;2.96;100.00
18858;BME280;9558;50.178;8.370;2022-12-07T00:58:31;98249.47;;;2.97;100.00
18858;BME280;9558;50.178;8.370;2022-12-07T01:01:00;98257.97;;;2.98;100.00
18858;BME280;9558;50.178;8.370;2022-12-07T01:03:28;98258.22;;;2.94;100.00
18858;BME280;9558;50.178;8.370;2022-12-07T01:05:56;98251.94;;;2.99;100.00
18858;BME280;9558;50.178;8.370;2022-12-07T01:08:24;98245.44;;;2.94;100.00
18858;BME280;9558;50.178;8.370;2022-12-07T01:10:58;98247.16;;;2.94;100.00
18858;BME280;9558;50.178;8.370;2022-12-07T01:13:25;98241.94;;;2.96;100.00
18858;BME280;9558;50.178;8.370;2022-12-07T01:15:51;98240.31;;;2.94;100.00
18858;BME280;9558;50.178;8.370;2022-12-07T01:18:17;98249.19;;;2.90;100.00
18858;BME280;9558;50.178;8.370;2022-12-07T01:20:57;98238.00;;;2.91;100.00
18858;BME280;9558;50.178;8.370;2022-12-07T01:23:23;98239.63;;;2.92;100.00
18858;BME280;9558;50.178;8.370;2022-12-07T01:25:54;98245.44;;;2.94;100.00
18858;BME280;9558;50.178;8.370;2022-12-07T01:28:20;98241.25;;;2.93;100.00
18858;BME280;9558;50.178;8.370;2022-12-07T01:30:54;98247.03;;;2.96;100.00
18858;BME280;9558;50.178;8.370;2022-12-07T01:33:21;98252.16;;;2.96;100.00
18858;BME280;9558;50.178;8.370;2022-12-07T01:35:49;98252.59;;;3.01;100.00
18858;BME280;9558;50.178;8.370;2022-12-07T01:38:15;98248.28;;;3.01;100.00
18858;BME280;9558;50.178;8.370;2022-12-07T01:40:41;98257.47;;;3.04;100.00
18858;BME280;9558;50.178;8.370;2022-12-07T01:43:14;98251.41;;;3.05;100.00
18858;BME280;9558;50.178;8.370;2022-12-07T01:45:43;98250.72;;;3.03;100.00
18858;BME280;9558;50.178;8.370;2022-12-07T01:48:11;98243.75;;;3.05;100.00
18858;BME280;9558;50.178;8.370;2022-12-07T01:50:41;98236.88;;;3.05;100.00
18858;BME280;9558;50.178;8.370;2022-12-07T01:53:10;98241.19;;;3.05;100.00
18858;BME280;9558;50.178;8.370;2022-12-07T01:55:40;98241.19;;;3.05;100.00
18858;BME280;9558;50.178;8.370;2022-12-07T01:58:08;98242.13;;;3.04;100.00
18858;BME280;9558;50.178;8.370;2022-12-07T02:00:35;98244.69;;;3.04;100.00
18858;BME280;9558;50.178;8.370;2022-12-07T02:03:05;98239.69;;;3.02;100.00
18858;BME280;9558;50.178;8.370;2022-12-07T02:05:33;98228.41;;;3.05;100.00
18858;BME280;9558;50.178;8.370;2022-12-07T02:08:04;98227.72;;;3.03;100.00
18858;BME280;9558;50.178;8.370;2022-12-07T02:10:32;98223.81;;;2.99;100.00
18858;BME280;9558;50.178;8.370;2022-12-07T02:13:01;98220.56;;;2.97;100.00
18858;BME280;9558;50.178;8.370;2022-12-07T02:15:37;98219.63;;;2.98;100.00
18858;BME280;9558;50.178;8.370;2022-12-07T02:18:09;98223.81;;;2.99;100.00
18858;BME280;9558;50.178;8.370;2022-12-07T02:20:40;98225.28;;;3.01;100.00
18858;BME280;9558;50.178;8.370;2022-12-07T02:23:34;98218.19;;;3.05;100.00
18858;BME280;9558;50.178;8.370;2022-12-07T02:26:25;98216.69;;;3.02;100.00
18858;BME280;9558;50.178;8.370;2022-12-07T02:29:10;98214.00;;;3.04;100.00
18858;BME280;9558;50.178;8.370;2022-12-07T02:31:41;98211.69;;;3.01;100.00
18858;BME280;9558;50.178;8.370;2022-12-07T02:34:13;98210.06;;;3.00;100.00
18858;BME280;9558;50.178;8.370;2022-12-07T02:36:46;98216.00;;;3.00;100.00
18858;BME280;9558;50.178;8.370;2022-12-07T02:39:18;98208.47;;;2.99;100.00
18858;BME280;9558;50.178;8.370;2022-12-07T02:41:48;98205.34;;;2.95;100.00
18858;BME280;9558;50.178;8.370;2022-12-07T02:44:21;98214.63;;;2.96;100.00
18858;BME280;9558;50.178;8.370;2022-12-07T02:46:52;98210.06;;;3.00;100.00
18858;BME280;9558;50.178;8.370;2022-12-07T02:49:21;98208.69;;;2.96;100.00
18858;BME280;9558;50.178;8.370;2022-12-07T02:51:48;98206.84;;;2.98;100.00
18858;BME280;9558;50.178;8.370;2022-12-07T02:54:17;98205.22;;;2.97;100.00
18858;BME280;9558;50.178;8.370;2022-12-07T02:56:46;98205.22;;;2.97;100.00
18858;BME280;9558;50.178;8.370;2022-12-07T02:59:20;98201.72;;;2.98;100.00
18858;BME280;9558;50.178;8.370;2022-12-07T03:02:01;98195.56;;;3.00;100.00
18858;BME280;9558;50.178;8.370;2022-12-07T03:04:39;98189.75;;;2.98;100.00
18858;BME280;9558;50.178;8.370;2022-12-07T03:07:15;98193.69;;;3.02;100.00
18858;BME280;9558;50.178;8.370;2022-12-07T03:09:51;98194.47;;;3.03;100.00
18858;BME280;9558;50.178;8.370;2022-12-07T03:12:25;98187.50;;;3.05;100.00
18858;BME280;9558;50.178;8.370;2022-12-07T03:15:00;98187.25;;;3.08;100.00
18858;BME280;9558;50.178;8.370;2022-12-07T03:17:32;98186.97;;;3.11;100.00
18858;BME280;9558;50.178;8.370;2022-12-07T03:20:02;98187.91;;;3.10;100.00
18858;BME280;9558;50.178;8.370;2022-12-07T03:22:31;98192.81;;;3.13;100.00
18858;BME280;9558;50.178;8.370;2022-12-07T03:25:03;98192.09;;;3.11;100.00
18858;BME280;9558;50.178;8.370;2022-12-07T03:27:33;98189.53;;;3.11;100.00
18858;BME280;9558;50.178;8.370;2022-12-07T03:30:05;98185.81;;;3.15;100.00
18858;BME280;9558;50.178;8.370;2022-12-07T03:32:35;98182.44;;;3.15;100.00
18858;BME280;9558;50.178;8.370;2022-12-07T03:35:05;98181.63;;;3.14;100.00
18858;BME280;9558;50.178;8.370;2022-12-07T03:37:39;98178.94;;;3.16;100.00
18858;BME280;9558;50.178;8.370;2022-12-07T03:40:11;98184.63;;;3.19;100.00
18858;BME280;9558;50.178;8.370;2022-12-07T03:42:39;98186.38;;;3.19;100.00
18858;BME280;9558;50.178;8.370;2022-12-07T03:45:08;98179.50;;;3.19;100.00
18858;BME280;9558;50.178;8.370;2022-12-07T03:47:42;98182.06;;;3.19;100.00
18858;BME280;9558;50.178;8.370;2022-12-07T03:50:16;98179.38;;;3.21;100.00
18858;BME280;9558;50.178;8.370;2022-12-07T03:52:47;98180.88;;;3.23;100.00
18858;BME280;9558;50.178;8.370;2022-12-07T03:55:22;98174.81;;;3.24;100.00
18858;BME280;9558;50.178;8.370;2022-12-07T03:57:54;98172.50;;;3.21;100.00
18858;BME280;9558;50.178;8.370;2022-12-07T04:00:23;98176.69;;;3.22;100.00
18858;BME280;9558;50.178;8.370;2022-12-07T04:02:51;98175.75;;;3.23;100.00
18858;BME280;9558;50.178;8.370;2022-12-07T04:05:18;98174.91;;;3.23;100.00
18858;BME280;9558;50.178;8.370;2022-12-07T04:07:45;98178.19;;;3.25;100.00
18858;BME280;9558;50.178;8.370;2022-12-07T04:10:12;98174.69;;;3.26;100.00
18858;BME280;9558;50.178;8.370;2022-12-07T04:12:38;98180.34;;;3.29;100.00
18858;BME280;9558;50.178;8.370;2022-12-07T04:15:06;98170.38;;;3.26;100.00
18858;BME280;9558;50.178;8.370;2022-12-07T04:17:34;98175.22;;;3.29;100.00
18858;BME280;9558;50.178;8.370;2022-12-07T04:20:01;98175.22;;;3.29;100.00
18858;BME280;9558;50.178;8.370;2022-12-07T04:22:29;98170.81;;;3.32;100.00
18858;BME280;9558;50.178;8.370;2022-12-07T04:24:55;98173.38;;;3.32;100.00
18858;BME280;9558;50.178;8.370;2022-12-07T04:27:22;98177.38;;;3.34;100.00
18858;BME280;9558;50.178;8.370;2022-12-07T04:29:48;98177.16;;;3.37;100.00
18858;BME280;9558;50.178;8.370;2022-12-07T04:32:15;98170.28;;;3.38;100.00
18858;BME280;9558;50.178;8.370;2022-12-07T04:34:42;98170.81;;;3.41;100.00
18858;BME280;9558;50.178;8.370;2022-12-07T04:37:09;98173.50;;;3.40;100.00
18858;BME280;9558;50.178;8.370;2022-12-07T04:39:35;98172.56;;;3.41;100.00
18858;BME280;9558;50.178;8.370;2022-12-07T04:42:02;98172.31;;;3.44;100.00
18858;BME280;9558;50.178;8.370;2022-12-07T04:44:30;98172.19;;;3.45;100.00
18858;BME280;9558;50.178;8.370;2022-12-07T04:46:57;98177.03;;;3.49;100.00
18858;BME280;9558;50.178;8.370;2022-12-07T04:49:24;98168.44;;;3.50;100.00
18858;BME280;9558;50.178;8.370;2022-12-07T04:51:52;98171.81;;;3.50;100.00
18858;BME280;9558;50.178;8.370;2022-12-07T04:54:19;98170.84;;;3.51;100.00
18858;BME280;9558;50.178;8.370;2022-12-07T04:56:46;98171.56;;;3.53;100.00
18858;BME280;9558;50.178;8.370;2022-12-07T04:59:14;98172.22;;;3.55;100.00
18858;BME280;9558;50.178;8.370;2022-12-07T05:01:40;98169.38;;;3.58;100.00
18858;BME280;9558;50.178;8.370;2022-12-07T05:04:07;98170.88;;;3.61;100.00
18858;BME280;9558;50.178;8.370;2022-12-07T05:06:34;98171.69;;;3.61;100.00
18858;BME280;9558;50.178;8.370;2022-12-07T05:09:03;98164.72;;;3.63;100.00
18858;BME280;9558;50.178;8.370;2022-12-07T05:11:29;98169.81;;;3.63;100.00
18858;BME280;9558;50.178;8.370;2022-12-07T05:14:07;98169.69;;;3.65;100.00
18858;BME280;9558;50.178;8.370;2022-12-07T05:16:34;98171.31;;;3.66;100.00
18858;BME280;9558;50.178;8.370;2022-12-07T05:19:01;98176.44;;;3.66;100.00
18858;BME280;9558;50.178;8.370;2022-12-07T05:21:28;98167.78;;;3.67;100.00
18858;BME280;9558;50.178;8.370;2022-12-07T05:23:54;98170.25;;;3.69;100.00
18858;BME280;9558;50.178;8.370;2022-12-07T05:26:22;98162.44;;;3.70;100.00
18858;BME280;9558;50.178;8.370;2022-12-07T05:28:50;98168.34;;;3.71;100.00
18858;BME280;9558;50.178;8.370;2022-12-07T05:31:17;98170.91;;;3.71;100.00
18858;BME280;9558;50.178;8.370;2022-12-07T05:33:44;98167.56;;;3.70;100.00
18858;BME280;9558;50.178;8.370;2022-12-07T05:36:10;98163.25;;;3.71;100.00
18858;BME280;9558;50.178;8.370;2022-12-07T05:38:37;98157.84;;;3.74;100.00
18858;BME280;9558;50.178;8.370;2022-12-07T05:41:05;98166.47;;;3.73;100.00
18858;BME280;9558;50.178;8.370;2022-12-07T05:43:33;98162.97;;;3.74;100.00
18858;BME280;9558;50.178;8.370;2022-12-07T05:45:59;98165.41;;;3.75;100.00
18858;BME280;9558;50.178;8.370;2022-12-07T05:48:26;98171.34;;;3.76;100.00
18858;BME280;9558;50.178;8.370;2022-12-07T05:50:53;98162.69;;;3.77;100.00
18858;BME280;9558;50.178;8.370;2022-12-07T05:53:22;98168.78;;;3.76;100.00
18858;BME280;9558;50.178;8.370;2022-12-07T05:55:49;98163.09;;;3.72;100.00
18858;BME280;9558;50.178;8.370;2022-12-07T05:58:15;98169.72;;;3.75;100.00
18858;BME280;9558;50.178;8.370;2022-12-07T06:01:01;98173.91;;;3.76;100.00
18858;BME280;9558;50.178;8.370;2022-12-07T06:03:27;98167.81;;;3.77;100.00
18858;BME280;9558;50.178;8.370;2022-12-07T06:05:54;98163.66;;;3.76;100.00
18858;BME280;9558;50.178;8.370;2022-12-07T06:08:20;98168.38;;;3.80;100.00
18858;BME280;9558;50.178;8.370;2022-12-07T06:10:47;98166.22;;;3.76;100.00
18858;BME280;9558;50.178;8.370;2022-12-07T06:13:36;98165.97;;;3.79;100.00
18858;BME280;9558;50.178;8.370;2022-12-07T06:16:03;98161.91;;;3.76;100.00
18858;BME280;9558;50.178;8.370;2022-12-07T06:18:29;98167.81;;;3.77;100.00
18858;BME280;9558;50.178;8.370;2022-12-07T06:20:56;98168.66;;;3.77;100.00
18858;BME280;9558;50.178;8.370;2022-12-07T06:23:23;98165.97;;;3.79;100.00
18858;BME280;9558;50.178;8.370;2022-12-07T06:25:49;98170.13;;;3.80;100.00
18858;BME280;9558;50.178;8.370;2022-12-07T06:28:16;98160.84;;;3.79;100.00
18858;BME280;9558;50.178;8.370;2022-12-07T06:30:42;98167.03;;;3.76;100.00
18858;BME280;9558;50.178;8.370;2022-12-07T06:33:10;98161.09;;;3.76;100.00
18858;BME280;9558;50.178;8.370;2022-12-07T06:35:37;98162.84;;;3.75;100.00
18858;BME280;9558;50.178;8.370;2022-12-07T06:38:03;98162.19;;;3.73;100.00
18858;BME280;9558;50.178;8.370;2022-12-07T06:40:30;98158.91;;;3.71;100.00
18858;BME280;9558;50.178;8.370;2022-12-07T06:42:56;98165.13;;;3.69;100.00
18858;BME280;9558;50.178;8.370;2022-12-07T06:45:23;98161.88;;;3.67;100.00
18858;BME280;9558;50.178;8.370;2022-12-07T06:47:49;98163.50;;;3.68;100.00
18858;BME280;9558;50.178;8.370;2022-12-07T06:50:17;98167.00;;;3.67;100.00
18858;BME280;9558;50.178;8.370;2022-12-07T06:52:44;98167.78;;;3.67;100.00
18858;BME280;9558;50.178;8.370;2022-12-07T06:55:10;98167.69;;;3.69;100.00
18858;BME280;9558;50.178;8.370;2022-12-07T06:57:37;98164.44;;;3.67;100.00
18858;BME280;9558;50.178;8.370;2022-12-07T07:00:05;98165.22;;;3.67;100.00
18858;BME280;9558;50.178;8.370;2022-12-07T07:02:32;98174.00;;;3.65;100.00
18858;BME280;9558;50.178;8.370;2022-12-07T07:04:58;98173.06;;;3.66;100.00
18858;BME280;9558;50.178;8.370;2022-12-07T07:07:26;98175.06;;;3.62;100.00
18858;BME280;9558;50.178;8.370;2022-12-07T07:09:53;98183.16;;;3.57;100.00
18858;BME280;9558;50.178;8.370;2022-12-07T07:12:19;98178.03;;;3.57;100.00
18858;BME280;9558;50.178;8.370;2022-12-07T07:14:46;98177.47;;;3.54;100.00
18858;BME280;9558;50.178;8.370;2022-12-07T07:17:12;98186.06;;;3.53;100.00
18858;BME280;9558;50.178;8.370;2022-12-07T07:19:39;98180.41;;;3.49;100.00
18858;BME280;9558;50.178;8.370;2022-12-07T07:22:05;98184.72;;;3.49;100.00
18858;BME280;9558;50.178;8.370;2022-12-07T07:24:33;98188.22;;;3.48;100.00
18858;BME280;9558;50.178;8.370;2022-12-07T07:26:59;98185.81;;;3.46;100.00
18858;BME280;9558;50.178;8.370;2022-12-07T07:29:26;98188.22;;;3.48;100.00
18858;BME280;9558;50.178;8.370;2022-12-07T07:31:53;98185.53;;;3.49;100.00
18858;BME280;9558;50.178;8.370;2022-12-07T07:34:19;98184.72;;;3.49;100.00
18858;BME280;9558;50.178;8.370;2022-12-07T07:36:45;98193.88;;;3.51;100.00
18858;BME280;9558;50.178;8.370;2022-12-07T07:39:12;98195.50;;;3.52;100.00
18858;BME280;9558;50.178;8.370;2022-12-07T07:41:40;98196.06;;;3.56;100.00
18858;BME280;9558;50.178;8.370;2022-12-07T07:44:06;98198.50;;;3.57;100.00
18858;BME280;9558;50.178;8.370;2022-12-07T07:46:33;98192.44;;;3.58;100.00
18858;BME280;9558;50.178;8.370;2022-12-07T07:49:00;98193.13;;;3.60;100.00
18858;BME280;9558;50.178;8.370;2022-12-07T07:51:26;98194.72;;;3.61;100.00
18858;BME280;9558;50.178;8.370;2022-12-07T07:53:53;98192.16;;;3.61;100.00
18858;BME280;9558;50.178;8.370;2022-12-07T07:56:20;98202.81;;;3.67;100.00
18858;BME280;9558;50.178;8.370;2022-12-07T07:58:51;98207.00;;;3.68;100.00
18858;BME280;9558;50.178;8.370;2022-12-07T08:01:17;98203.25;;;3.72;100.00
18858;BME280;9558;50.178;8.370;2022-12-07T08:03:44;98203.00;;;3.75;100.00
18858;BME280;9558;50.178;8.370;2022-12-07T08:06:12;98202.31;;;3.83;100.00
18858;BME280;9558;50.178;8.370;2022-12-07T08:08:38;98194.50;;;3.84;100.00
18858;BME280;9558;50.178;8.370;2022-12-07T08:11:05;98206.94;;;3.89;100.00
18858;BME280;9558;50.178;8.370;2022-12-07T08:13:32;98202.88;;;3.86;100.00
18858;BME280;9558;50.178;8.370;2022-12-07T08:16:03;98206.13;;;3.88;100.00
18858;BME280;9558;50.178;8.370;2022-12-07T08:18:30;98208.00;;;3.86;100.00
18858;BME280;9558;50.178;8.370;2022-12-07T08:20:59;98203.16;;;3.93;100.00
18858;BME280;9558;50.178;8.370;2022-12-07T08:23:26;98207.19;;;3.95;100.00
18858;BME280;9558;50.178;8.370;2022-12-07T08:25:52;98201.94;;;3.97;100.00
18858;BME280;9558;50.178;8.370;2022-12-07T08:28:19;98201.69;;;4.00;100.00
18858;BME280;9558;50.178;8.370;2022-12-07T08:30:46;98204.00;;;4.03;100.00
18858;BME280;9558;50.178;8.370;2022-12-07T08:33:14;98206.44;;;4.05;100.00
18858;BME280;9558;50.178;8.370;2022-12-07T08:35:41;98200.47;;;4.04;100.00
18858;BME280;9558;50.178;8.370;2022-12-07T08:38:07;98199.69;;;4.04;100.00
18858;BME280;9558;50.178;8.370;2022-12-07T08:40:34;98205.34;;;4.07;100.00
18858;BME280;9558;50.178;8.370;2022-12-07T08:43:00;98212.63;;;4.12;100.00
18858;BME280;9558;50.178;8.370;2022-12-07T08:45:27;98206.03;;;4.19;100.00
18858;BME280;9558;50.178;8.370;2022-12-07T08:48:00;98213.19;;;4.25;100.00
18858;BME280;9558;50.178;8.370;2022-12-07T08:50:31;98209.41;;;4.29;100.00
18858;BME280;9558;50.178;8.370;2022-12-07T08:52:59;98217.75;;;4.31;100.00
18858;BME280;9558;50.178;8.370;2022-12-07T08:55:26;98222.63;;;4.35;100.00
18858;BME280;9558;50.178;8.370;2022-12-07T08:57:53;98222.38;;;4.38;100.00
18858;BME280;9558;50.178;8.370;2022-12-07T09:00:20;98221.03;;;4.43;100.00
18858;BME280;9558;50.178;8.370;2022-12-07T09:02:47;98211.03;;;4.50;100.00
18858;BME280;9558;50.178;8.370;2022-12-07T09:05:14;98214.56;;;4.59;100.00
18858;BME280;9558;50.178;8.370;2022-12-07T09:07:43;98208.72;;;4.66;100.00
18858;BME280;9558;50.178;8.370;2022-12-07T09:10:10;98213.44;;;4.71;100.00
18858;BME280;9558;50.178;8.370;2022-12-07T09:12:36;98222.34;;;4.77;100.00
18858;BME280;9558;50.178;8.370;2022-12-07T09:15:04;98218.97;;;4.86;100.00
18858;BME280;9558;50.178;8.370;2022-12-07T09:17:32;98227.88;;;4.92;100.00
18858;BME280;9558;50.178;8.370;2022-12-07T09:19:59;98232.03;;;4.93;100.00
18858;BME280;9558;50.178;8.370;2022-12-07T09:22:28;98228.81;;;5.00;100.00
18858;BME280;9558;50.178;8.370;2022-12-07T09:24:56;98235.94;;;5.07;100.00
18858;BME280;9558;50.178;8.370;2022-12-07T09:27:22;98228.25;;;5.07;100.00
18858;BME280;9558;50.178;8.370;2022-12-07T09:29:49;98231.59;;;5.07;100.00
18858;BME280;9558;50.178;8.370;2022-12-07T09:32:15;98235.00;;;5.08;100.00
18858;BME280;9558;50.178;8.370;2022-12-07T09:34:42;98240.13;;;5.08;100.00
18858;BME280;9558;50.178;8.370;2022-12-07T09:37:09;98238.50;;;5.07;100.00
18858;BME280;9558;50.178;8.370;2022-12-07T09:39:37;98236.63;;;5.09;100.00
18858;BME280;9558;50.178;8.370;2022-12-07T09:42:05;98238.50;;;5.07;100.00
18858;BME280;9558;50.178;8.370;2022-12-07T09:44:33;98240.41;;;5.05;100.00
18858;BME280;9558;50.178;8.370;2022-12-07T09:47:01;98230.94;;;5.05;100.00
18858;BME280;9558;50.178;8.370;2022-12-07T09:49:30;98239.06;;;5.00;100.00
18858;BME280;9558;50.178;8.370;2022-12-07T09:52:02;98231.50;;;4.99;100.00
18858;BME280;9558;50.178;8.370;2022-12-07T09:54:29;98236.78;;;4.97;100.00
18858;BME280;9558;50.178;8.370;2022-12-07T09:56:56;98234.47;;;4.94;100.00
18858;BME280;9558;50.178;8.370;2022-12-07T09:59:25;98233.09;;;5.00;100.00
18858;BME280;9558;50.178;8.370;2022-12-07T10:01:51;98227.19;;;4.99;100.00
18858;BME280;9558;50.178;8.370;2022-12-07T10:04:20;98215.00;;;5.01;100.00
18858;BME280;9558;50.178;8.370;2022-12-07T10:06:48;98213.78;;;5.06;100.00
18858;BME280;9558;50.178;8.370;2022-12-07T10:09:17;98209.47;;;5.06;100.00
18858;BME280;9558;50.178;8.370;2022-12-07T10:12:01;98206.34;;;5.12;100.00
18858;BME280;9558;50.178;8.370;2022-12-07T10:14:32;98201.78;;;5.16;100.00
18858;BME280;9558;50.178;8.370;2022-12-07T10:16:59;98200.81;;;5.17;100.00
18858;BME280;9558;50.178;8.370;2022-12-07T10:19:27;98200.41;;;5.22;100.00
18858;BME280;9558;50.178;8.370;2022-12-07T10:22:06;98200.78;;;5.27;100.00
18858;BME280;9558;50.178;8.370;2022-12-07T10:24:35;98201.97;;;5.32;100.00
18858;BME280;9558;50.178;8.370;2022-12-07T10:27:02;98196.25;;;5.39;100.00
18858;BME280;9558;50.178;8.370;2022-12-07T10:29:32;98189.75;;;5.44;100.00
18858;BME280;9558;50.178;8.370;2022-12-07T10:32:01;98192.44;;;5.52;100.00
18858;BME280;9558;50.178;8.370;2022-12-07T10:34:29;98183.06;;;5.61;100.00
18858;BME280;9558;50.178;8.370;2022-12-07T10:37:15;98175.47;;;5.69;100.00
18858;BME280;9558;50.178;8.370;2022-12-07T10:39:44;98184.06;;;5.78;100.00
18858;BME280;9558;50.178;8.370;2022-12-07T10:42:22;98179.81;;;5.87;100.00
18858;BME280;9558;50.178;8.370;2022-12-07T10:45:07;98177.06;;;5.98;100.00
18858;BME280;9558;50.178;8.370;2022-12-07T10:47:36;98176.78;;;6.01;100.00
18858;BME280;9558;50.178;8.370;2022-12-07T10:50:26;98172.97;;;6.05;100.00
18858;BME280;9558;50.178;8.370;2022-12-07T10:53:26;98170.69;;;6.02;100.00
18858;BME280;9558;50.178;8.370;2022-12-07T10:56:11;98166.78;;;5.98;100.00
18858;BME280;9558;50.178;8.370;2022-12-07T10:58:56;98167.06;;;5.95;100.00
18858;BME280;9558;50.178;8.370;2022-12-07T11:01:32;98160.97;;;5.96;100.00
18858;BME280;9558;50.178;8.370;2022-12-07T11:04:11;98166.03;;;5.88;100.00
18858;BME280;9558;50.178;8.370;2022-12-07T11:06:46;98168.59;;;5.88;100.00
18858;BME280;9558;50.178;8.370;2022-12-07T11:09:36;98172.56;;;5.82;100.00
18858;BME280;9558;50.178;8.370;2022-12-07T11:12:09;98163.75;;;5.85;100.00
18858;BME280;9558;50.178;8.370;2022-12-07T11:14:47;98160.50;;;5.83;100.00
18858;BME280;9558;50.178;8.370;2022-12-07T11:17:26;98159.56;;;5.84;100.00
18858;BME280;9558;50.178;8.370;2022-12-07T11:20:05;98154.28;;;5.85;100.00
18858;BME280;9558;50.178;8.370;2022-12-07T11:22:45;98156.41;;;5.90;100.00
18858;BME280;9558;50.178;8.370;2022-12-07T11:25:20;98151.38;;;5.98;100.00
18858;BME280;9558;50.178;8.370;2022-12-07T11:27:58;98140.53;;;6.04;100.00
18858;BME280;9558;50.178;8.370;2022-12-07T11:30:32;98143.22;;;6.03;100.00
18858;BME280;9558;50.178;8.370;2022-12-07T11:33:10;98145.69;;;6.04;100.00
18858;BME280;9558;50.178;8.370;2022-12-07T11:35:53;98148.91;;;6.07;100.00
18858;BME280;9558;50.178;8.370;2022-12-07T11:38:26;98135.59;;;6.11;100.00
18858;BME280;9558;50.178;8.370;2022-12-07T11:40:58;98136.94;;;6.15;100.00
18858;BME280;9558;50.178;8.370;2022-12-07T11:43:52;98134.13;;;6.27;100.00
18858;BME280;9558;50.178;8.370;2022-12-07T11:46:25;98128.91;;;6.36;100.00
18858;BME280;9558;50.178;8.370;2022-12-07T11:48:57;98131.56;;;6.45;100.00
18858;BME280;9558;50.178;8.370;2022-12-07T11:51:26;98130.94;;;6.51;100.00
18858;BME280;9558;50.178;8.370;2022-12-07T11:53:57;98134.16;;;6.53;98.41
18858;BME280;9558;50.178;8.370;2022-12-07T11:56:27;98126.50;;;6.61;100.00
18858;BME280;9558;50.178;8.370;2022-12-07T11:58:59;98119.75;;;6.60;100.00
18858;BME280;9558;50.178;8.370;2022-12-07T12:01:33;98118.47;;;6.56;99.39
18858;BME280;9558;50.178;8.370;2022-12-07T12:04:19;98112.94;;;6.51;99.77
18858;BME280;9558;50.178;8.370;2022-12-07T12:06:48;98109.06;;;6.47;99.39
18858;BME280;9558;50.178;8.370;2022-12-07T12:09:16;98109.06;;;6.47;98.57
18858;BME280;9558;50.178;8.370;2022-12-07T12:11:54;98107.03;;;6.32;98.28
18858;BME280;9558;50.178;8.370;2022-12-07T12:14:46;98105.94;;;6.17;96.28
18858;BME280;9558;50.178;8.370;2022-12-07T12:17:32;98107.19;;;6.13;98.10
18858;BME280;9558;50.178;8.370;2022-12-07T12:20:14;98105.53;;;6.03;96.48
18858;BME280;9558;50.178;8.370;2022-12-07T12:22:46;98097.56;;;5.97;98.11
18858;BME280;9558;50.178;8.370;2022-12-07T12:25:20;98094.88;;;5.98;99.08
18858;BME280;9558;50.178;8.370;2022-12-07T12:27:48;98097.44;;;5.98;99.53
18858;BME280;9558;50.178;8.370;2022-12-07T12:30:34;98098.91;;;6.01;99.89
18858;BME280;9558;50.178;8.370;2022-12-07T12:33:03;98096.19;;;6.02;99.51
18858;BME280;9558;50.178;8.370;2022-12-07T12:35:33;98093.63;;;6.02;99.29
18858;BME280;9558;50.178;8.370;2022-12-07T12:38:31;98089.81;;;6.07;100.00
18858;BME280;9558;50.178;8.370;2022-12-07T12:41:00;98090.47;;;6.09;100.00
18858;BME280;9558;50.178;8.370;2022-12-07T12:46:47;98083.06;;;6.05;100.00
18858;BME280;9558;50.178;8.370;2022-12-07T12:49:33;98083.50;;;6.01;100.00
18858;BME280;9558;50.178;8.370;2022-12-07T12:58:22;98081.56;;;5.85;100.00
18858;BME280;9558;50.178;8.370;2022-12-07T13:03:55;98080.75;;;5.66;100.00
18858;BME280;9558;50.178;8.370;2022-12-07T13:06:34;98078.50;;;5.63;100.00
18858;BME280;9558;50.178;8.370;2022-12-07T13:09:15;98071.72;;;5.62;100.00
18858;BME280;9558;50.178;8.370;2022-12-07T13:11:44;98074.06;;;5.56;100.00
18858;BME280;9558;50.178;8.370;2022-12-07T13:14:40;98065.19;;;5.50;100.00
18858;BME280;9558;50.178;8.370;2022-12-07T13:17:08;98060.06;;;5.50;100.00
18858;BME280;9558;50.178;8.370;2022-12-07T13:19:56;98063.59;;;5.49;100.00
18858;BME280;9558;50.178;8.370;2022-12-07T13:22:51;98067.41;;;5.45;100.00
18858;BME280;9558;50.178;8.370;2022-12-07T13:25:27;98068.50;;;5.42;100.00
18858;BME280;9558;50.178;8.370;2022-12-07T13:27:59;98066.06;;;5.41;100.00
18858;BME280;9558;50.178;8.370;2022-12-07T13:30:27;98061.22;;;5.38;100.00
18858;BME280;9558;50.178;8.370;2022-12-07T13:32:57;98074.47;;;5.33;100.00
18858;BME280;9558;50.178;8.370;2022-12-07T13:35:32;98067.75;;;5.32;100.00
18858;BME280;9558;50.178;8.370;2022-12-07T13:38:01;98056.00;;;5.29;100.00
18858;BME280;9558;50.178;8.370;2022-12-07T13:40:30;98055.22;;;5.29;100.00
18858;BME280;9558;50.178;8.370;2022-12-07T13:42:58;98057.25;;;5.25;100.00